Terminal Aerodrome Forecast
Issued by NWS

Home | Current Version | Previous Version | Text Only | Print | Product List | Glossary On
Versions: 1 2 3 4 5 6 7 8 9 10 11 12 13 14 15 16 17 18 19 20 21 22 23 24 25
767
FTUS43 KDVN 120528
TAFBRL
TAF
KBRL 120528Z 1206/1306 22004KT P6SM -SN SCT025 OVC080
      TEMPO 1206/1207 3SM -SN OVC025
     FM121000 25005KT P6SM BKN025
     FM121600 33010KT P6SM BKN040
     FM121700 33016G24KT P6SM SCT200
     FM130000 33011KT P6SM SKC=

USA.gov is the U.S. government's official web portal to all federal, state and local government web resources and services.